Time;durP1;ratioP1;P1;durP2;ratioP2;P2;SDS_P1;SDS_P2;PMS_P1;PMS_P2;Temp;Humidity;BMP_temperature;BMP_pressure;BME280_temperature;BME280_humidity;BME280_pressure;Samples;Min_cycle;Max_cycle;Signal;HPM_P1;HPM_P2
2021/12/03 00:01:15;;;;;;;6.20;0.90;;;;;;;16.71;65.96;101389.50;5026359;28;20056;-65
2021/12/03 00:03:43;;;;;;;1.73;0.75;;;;;;;16.76;65.67;101387.72;5029266;28;20057;-65
2021/12/03 00:06:11;;;;;;;8.82;0.93;;;;;;;16.76;65.76;101384.16;5010129;28;20489;-65
2021/12/03 00:08:38;;;;;;;4.20;0.70;;;;;;;16.70;65.64;101388.63;5027524;28;20440;-65
2021/12/03 00:11:09;;;;;;;7.20;0.60;;;;;;;16.67;65.87;101391.25;5025595;28;20041;-65
2021/12/03 00:13:37;;;;;;;7.28;0.47;;;;;;;16.63;65.85;101399.28;5027401;28;20038;-65
2021/12/03 00:16:08;;;;;;;5.72;1.00;;;;;;;16.60;66.02;101410.84;5028408;28;20108;-65
2021/12/03 00:18:36;;;;;;;4.50;0.43;;;;;;;16.59;66.16;101414.34;5028059;28;20518;-65
2021/12/03 00:21:08;;;;;;;4.32;0.60;;;;;;;16.59;66.29;101413.47;5027417;28;20049;-65
2021/12/03 00:23:36;;;;;;;5.18;0.43;;;;;;;16.61;66.30;101398.38;5019804;28;20033;-65
2021/12/03 00:26:07;;;;;;;2.40;0.65;;;;;;;16.65;66.32;101395.72;5026629;28;20104;-65
2021/12/03 00:28:36;;;;;;;2.38;0.30;;;;;;;16.65;66.31;101398.41;5026638;28;20038;-66
2021/12/03 00:31:05;;;;;;;4.55;0.60;;;;;;;16.66;66.45;101416.19;5011789;28;20121;-66
2021/12/03 00:33:35;;;;;;;5.25;0.60;;;;;;;16.70;66.42;101411.72;5027739;28;20050;-66
2021/12/03 00:36:05;;;;;;;6.32;1.45;;;;;;;16.67;66.49;101417.06;5028178;28;20124;-65
2021/12/03 00:38:38;;;;;;;3.95;0.40;;;;;;;16.66;66.79;101400.19;5026671;28;20398;-66
2021/12/03 00:41:07;;;;;;;2.88;0.40;;;;;;;16.64;66.77;101395.72;5027727;28;20049;-65
2021/12/03 00:43:39;;;;;;;0.90;0.40;;;;;;;16.62;66.73;101401.03;5026453;28;20128;-65
2021/12/03 00:46:09;;;;;;;3.13;0.60;;;;;;;16.58;66.86;101412.56;5028420;28;20517;-65
2021/12/03 00:48:38;;;;;;;5.35;0.70;;;;;;;16.58;66.96;101403.69;5025381;28;20472;-65
2021/12/03 00:51:06;;;;;;;3.90;0.30;;;;;;;16.54;66.92;101404.56;5027957;28;20398;-65
2021/12/03 00:53:34;;;;;;;5.05;0.50;;;;;;;16.52;66.99;101401.91;5014231;28;20510;-65
2021/12/03 00:56:02;;;;;;;3.05;0.57;;;;;;;16.52;66.98;101396.56;5025889;28;20052;-65
2021/12/03 00:58:30;;;;;;;2.45;0.40;;;;;;;16.50;66.93;101402.78;5026343;28;20041;-65
2021/12/03 01:00:58;;;;;;;3.30;0.50;;;;;;;16.47;67.04;101405.44;5027328;28;20069;-65
2021/12/03 01:03:25;;;;;;;3.95;0.73;;;;;;;16.43;67.12;101401.88;5024760;28;20116;-65
2021/12/03 01:05:55;;;;;;;4.22;0.65;;;;;;;16.42;67.21;101392.09;5027879;28;20058;-66
2021/12/03 01:08:23;;;;;;;4.35;0.73;;;;;;;16.42;67.44;101384.09;5025530;28;20041;-66
2021/12/03 01:10:52;;;;;;;3.75;0.55;;;;;;;16.52;67.23;101377.91;5015709;28;20053;-65
2021/12/03 01:13:20;;;;;;;4.22;0.82;;;;;;;16.54;67.11;101384.13;5027226;28;20041;-65
2021/12/03 01:15:48;;;;;;;6.55;0.75;;;;;;;16.57;67.04;101391.22;5025731;28;20111;-67
2021/12/03 01:18:16;;;;;;;1.55;0.28;;;;;;;16.57;66.98;101391.22;5027894;28;20489;-65
2021/12/03 01:20:44;;;;;;;3.25;0.60;;;;;;;16.59;66.99;101381.47;5027407;28;20121;-65
2021/12/03 01:23:14;;;;;;;4.72;0.60;;;;;;;16.57;67.03;101377.91;5027731;28;20046;-65
2021/12/03 01:25:43;;;;;;;3.05;0.43;;;;;;;16.51;66.98;101373.47;5029964;28;20057;-66
2021/12/03 01:28:12;;;;;;;2.67;0.47;;;;;;;16.48;67.19;101369.88;5029866;28;20092;-65
2021/12/03 01:30:40;;;;;;;4.28;0.65;;;;;;;16.49;67.14;101369.00;5029565;28;20055;-65
2021/12/03 01:33:08;;;;;;;2.95;0.55;;;;;;;16.62;66.48;101386.81;5030532;28;20045;-65
2021/12/03 01:35:37;;;;;;;7.75;0.95;;;;;;;16.72;65.73;101377.97;5030273;28;20033;-65
2021/12/03 01:38:06;;;;;;;4.45;0.40;;;;;;;16.79;64.89;101363.75;5030418;28;20105;-65
2021/12/03 01:40:37;;;;;;;2.70;0.68;;;;;;;16.85;64.39;101358.41;5030064;28;20627;-65
2021/12/03 01:43:07;;;;;;;2.90;0.43;;;;;;;16.93;63.60;101337.97;5031733;28;20497;-65
2021/12/03 01:45:38;;;;;;;2.60;0.47;;;;;;;17.03;63.51;101344.16;5030680;28;20033;-65
2021/12/03 01:48:06;;;;;;;5.40;0.82;;;;;;;17.02;63.73;101334.38;5030951;28;20038;-65
2021/12/03 01:50:36;;;;;;;4.47;0.50;;;;;;;16.97;64.05;101333.50;5030060;28;20041;-65
2021/12/03 01:53:05;;;;;;;5.57;0.75;;;;;;;16.94;64.24;101326.38;5027648;28;20736;-65
2021/12/03 01:55:34;;;;;;;3.38;0.50;;;;;;;16.97;64.19;101322.81;5030608;28;20055;-65
2021/12/03 01:58:04;;;;;;;4.18;0.40;;;;;;;16.98;64.10;101329.94;5030606;28;20033;-65
2021/12/03 02:00:35;;;;;;;2.00;0.25;;;;;;;16.86;64.64;101327.28;5023185;28;20033;-65
2021/12/03 02:03:05;;;;;;;1.00;0.28;;;;;;;16.73;65.11;101329.97;5030970;28;20132;-65
2021/12/03 02:05:34;;;;;;;2.55;0.40;;;;;;;16.62;65.58;101337.06;5013040;28;20686;-65
2021/12/03 02:08:01;;;;;;;7.22;0.50;;;;;;;16.51;66.10;101344.16;5027792;28;20096;-65
2021/12/03 02:10:29;;;;;;;1.73;0.30;;;;;;;16.45;66.34;101333.47;5031016;28;20390;-65
2021/12/03 02:12:57;;;;;;;5.57;1.05;;;;;;;16.45;66.70;101337.91;5029192;28;20038;-65
2021/12/03 02:15:27;;;;;;;6.63;0.60;;;;;;;16.53;66.87;101331.72;5030974;28;20073;-65
2021/12/03 02:17:54;;;;;;;3.97;0.47;;;;;;;16.67;66.66;101342.41;5028826;28;20041;-65
2021/12/03 02:20:22;;;;;;;5.53;0.93;;;;;;;16.71;66.55;101336.19;5030440;28;20042;-65
2021/12/03 02:22:52;;;;;;;6.75;0.57;;;;;;;16.63;66.66;101322.84;5029571;28;20555;-66
2021/12/03 02:25:22;;;;;;;2.55;0.30;;;;;;;16.53;66.90;101321.06;5030686;28;20049;-66
2021/12/03 02:27:52;;;;;;;2.85;0.40;;;;;;;16.47;67.26;101320.16;5030278;28;20046;-66
2021/12/03 02:30:21;;;;;;;6.68;0.57;;;;;;;16.44;67.44;101317.47;5028928;28;20516;-66
2021/12/03 02:32:50;;;;;;;3.15;0.47;;;;;;;16.42;67.68;101313.91;5026503;28;20041;-66
2021/12/03 02:35:19;;;;;;;4.35;0.68;;;;;;;16.39;67.71;101313.94;5029965;28;20033;-66
2021/12/03 02:37:47;;;;;;;2.10;0.30;;;;;;;16.37;68.00;101316.59;5022891;28;20121;-65
2021/12/03 02:40:17;;;;;;;6.32;0.95;;;;;;;16.40;68.07;101311.28;5023692;28;20033;-65
2021/12/03 02:42:46;;;;;;;1.42;0.47;;;;;;;16.43;68.13;101310.38;5029338;28;20053;-65
2021/12/03 02:45:14;;;;;;;5.47;1.42;;;;;;;16.48;68.10;101319.25;5029657;28;20041;-65
2021/12/03 02:47:42;;;;;;;5.53;0.70;;;;;;;16.53;68.03;101321.06;5029069;28;20040;-65
2021/12/03 02:50:11;;;;;;;1.70;0.40;;;;;;;16.58;67.78;101324.59;5030339;28;20126;-65
2021/12/03 02:52:40;;;;;;;8.00;1.58;;;;;;;16.64;67.72;101311.31;5026982;28;21681;-66
2021/12/03 02:55:10;;;;;;;1.85;0.63;;;;;;;16.67;67.70;101299.75;5029276;28;20038;-66
2021/12/03 02:57:39;;;;;;;6.90;1.05;;;;;;;16.68;67.79;101298.84;5028685;28;20045;-65
2021/12/03 03:00:11;;;;;;;2.55;0.63;;;;;;;16.66;67.88;101309.53;5029896;28;20715;-65
2021/12/03 03:02:40;;;;;;;1.75;0.25;;;;;;;16.61;67.91;101321.94;5028699;28;20053;-65
2021/12/03 03:05:08;;;;;;;2.60;0.60;;;;;;;16.58;68.11;101335.25;5030034;28;20493;-65
2021/12/03 03:07:36;;;;;;;3.30;0.50;;;;;;;16.56;68.22;101336.13;5027590;28;20054;-65
2021/12/03 03:10:05;;;;;;;6.95;0.60;;;;;;;16.52;68.26;101332.59;5029305;28;20095;-65
2021/12/03 03:12:32;;;;;;;1.65;0.45;;;;;;;16.48;68.42;101338.78;5029340;28;20049;-65
2021/12/03 03:15:02;;;;;;;1.92;0.40;;;;;;;16.46;68.66;101337.94;5027858;28;20117;-65
2021/12/03 03:17:32;;;;;;;3.35;0.68;;;;;;;16.47;68.68;101342.38;5029646;28;20068;-65
2021/12/03 03:20:01;;;;;;;3.75;0.50;;;;;;;16.46;68.84;101343.25;5029119;28;20041;-65
2021/12/03 03:22:30;;;;;;;4.72;0.32;;;;;;;16.46;68.97;101337.03;5027396;28;20040;-65
2021/12/03 03:25:00;;;;;;;4.35;0.60;;;;;;;16.51;68.97;101325.50;5029621;28;20116;-65
2021/12/03 03:27:29;;;;;;;3.88;0.50;;;;;;;16.65;68.99;101338.84;5028448;28;20041;-65
2021/12/03 03:29:57;;;;;;;6.15;0.60;;;;;;;16.73;68.63;101324.66;5028520;28;20037;-65
2021/12/03 03:32:28;;;;;;;7.07;0.98;;;;;;;16.85;68.23;101337.06;5027780;28;20038;-66
2021/12/03 03:34:56;;;;;;;1.75;0.20;;;;;;;16.86;68.00;101338.84;5027821;28;20042;-66
2021/12/03 03:37:24;;;;;;;2.05;0.40;;;;;;;16.86;68.05;101349.53;5026706;28;20045;-66
2021/12/03 03:39:52;;;;;;;1.35;0.40;;;;;;;16.86;68.18;101354.84;5028151;28;20041;-66
2021/12/03 03:42:20;;;;;;;1.85;0.60;;;;;;;16.87;68.26;101345.94;5027623;28;20044;-66
2021/12/03 03:44:48;;;;;;;3.58;0.73;;;;;;;16.88;68.59;101344.16;5028545;28;20406;-65
2021/12/03 03:47:16;;;;;;;3.92;0.57;;;;;;;16.82;68.70;101360.16;5044161;28;20048;-65
2021/12/03 03:49:45;;;;;;;6.38;0.57;;;;;;;16.72;68.95;101354.84;5039167;28;20045;-65
2021/12/03 03:52:13;;;;;;;0.55;0.43;;;;;;;16.58;69.46;101348.59;5026800;28;20110;-65
2021/12/03 03:54:40;;;;;;;1.40;0.43;;;;;;;16.49;69.91;101342.34;5026287;28;20041;-65
2021/12/03 03:57:08;;;;;;;3.53;0.45;;;;;;;16.44;70.11;101346.78;5028657;28;20029;-66
2021/12/03 03:59:36;;;;;;;2.40;0.30;;;;;;;16.39;70.42;101340.59;5027605;28;20045;-66
2021/12/03 04:02:04;;;;;;;6.57;0.60;;;;;;;16.36;70.66;101338.78;5025834;28;20042;-65
2021/12/03 04:04:32;;;;;;;4.97;0.70;;;;;;;16.33;70.98;101339.69;5027174;28;20045;-65
2021/12/03 04:07:01;;;;;;;4.03;0.57;;;;;;;16.32;71.10;101347.69;5027984;28;20037;-65
2021/12/03 04:09:28;;;;;;;6.18;0.57;;;;;;;16.29;71.32;101359.22;5015808;28;20037;-65
2021/12/03 04:11:57;;;;;;;1.38;0.30;;;;;;;16.27;71.43;101360.13;5028819;28;20141;-65
2021/12/03 04:14:24;;;;;;;4.35;0.70;;;;;;;16.26;71.86;101369.88;5026851;28;20048;-65
2021/12/03 04:16:52;;;;;;;5.90;0.80;;;;;;;16.27;71.55;101368.09;5026161;28;20566;-66
2021/12/03 04:19:20;;;;;;;3.58;0.50;;;;;;;16.25;71.55;101368.09;5027350;28;20042;-65
2021/12/03 04:21:48;;;;;;;4.22;0.50;;;;;;;16.24;72.04;101368.09;5027358;28;20423;-65
2021/12/03 04:24:17;;;;;;;4.03;0.60;;;;;;;16.26;72.32;101376.97;5027669;28;20049;-65
2021/12/03 04:26:45;;;;;;;2.50;0.43;;;;;;;16.24;72.58;101386.72;5027366;28;20065;-65
2021/12/03 04:29:13;;;;;;;2.47;0.40;;;;;;;16.25;72.52;101380.53;5027121;28;20531;-66
2021/12/03 04:31:41;;;;;;;1.75;0.40;;;;;;;16.29;72.47;101375.19;5028352;28;20557;-65
2021/12/03 04:34:09;;;;;;;3.90;0.80;;;;;;;16.33;72.37;101368.13;5028007;28;20402;-66
2021/12/03 04:36:37;;;;;;;2.08;0.40;;;;;;;16.38;72.22;101374.34;5026654;28;20201;-66
2021/12/03 04:39:05;;;;;;;4.20;0.47;;;;;;;16.41;72.04;101369.00;5025882;28;20477;-65
2021/12/03 04:41:34;;;;;;;3.10;1.05;;;;;;;16.42;72.05;101381.44;5028077;28;20589;-66
2021/12/03 04:44:02;;;;;;;3.10;0.38;;;;;;;16.40;71.95;101374.34;5025664;28;20045;-65
2021/12/03 04:46:29;;;;;;;4.28;0.40;;;;;;;16.38;72.02;101386.78;5025132;28;20157;-66
2021/12/03 04:48:57;;;;;;;3.30;0.55;;;;;;;16.39;72.05;101370.78;5016678;28;20042;-65
2021/12/03 04:51:25;;;;;;;2.25;0.50;;;;;;;16.39;71.96;101376.13;5023288;28;20500;-66
2021/12/03 04:53:53;;;;;;;2.80;0.50;;;;;;;16.42;72.03;101369.88;5025387;28;20045;-65
2021/12/03 04:56:21;;;;;;;2.13;0.50;;;;;;;16.44;71.92;101369.00;5028729;28;20072;-66
2021/12/03 04:58:50;;;;;;;2.72;0.73;;;;;;;16.45;71.95;101361.91;5031006;28;20038;-66
2021/12/03 05:01:18;;;;;;;5.07;0.47;;;;;;;16.43;71.95;101366.34;5035968;28;20038;-65
2021/12/03 05:03:45;;;;;;;3.72;1.52;;;;;;;16.43;72.08;101374.34;5025202;28;20058;-66
2021/12/03 05:06:16;;;;;;;8.15;2.50;;;;;;;16.42;72.05;101370.78;5029746;28;20045;-65
2021/12/03 05:08:44;;;;;;;9.90;4.88;;;;;;;16.41;71.85;101376.97;5028557;28;20119;-66
2021/12/03 05:11:11;;;;;;;7.00;3.38;;;;;;;16.41;71.94;101363.66;5031880;28;20053;-65
2021/12/03 05:13:39;;;;;;;9.88;4.93;;;;;;;16.41;71.89;101371.66;5031809;28;20045;-65
2021/12/03 05:16:08;;;;;;;4.18;1.48;;;;;;;16.41;71.90;101369.00;5031117;28;20042;-65
2021/12/03 05:18:36;;;;;;;8.77;2.28;;;;;;;16.45;71.87;101383.22;5023580;28;20175;-65
2021/12/03 05:21:05;;;;;;;4.18;2.42;;;;;;;16.46;71.77;101385.00;5030593;28;20107;-66
2021/12/03 05:23:34;;;;;;;7.60;4.25;;;;;;;16.46;71.74;101387.69;5030573;28;20119;-66
2021/12/03 05:26:01;;;;;;;8.90;4.63;;;;;;;16.46;71.74;101364.59;5031731;28;20103;-65
2021/12/03 05:28:31;;;;;;;12.60;6.63;;;;;;;16.46;71.64;101364.59;5031253;28;20041;-66
2021/12/03 05:31:01;;;;;;;7.68;4.28;;;;;;;16.47;71.70;101358.38;5031507;28;20053;-66
2021/12/03 05:33:31;;;;;;;11.82;5.28;;;;;;;16.47;71.59;101363.69;5030273;28;20567;-65
2021/12/03 05:35:58;;;;;;;10.48;6.45;;;;;;;16.46;71.56;101363.69;5030977;28;20037;-66
2021/12/03 05:38:26;;;;;;;11.25;6.72;;;;;;;16.46;71.53;101358.34;5026807;28;20045;-65
2021/12/03 05:40:53;;;;;;;17.23;14.73;;;;;;;16.51;71.58;101367.25;5016093;28;21011;-66
2021/12/03 05:43:21;;;;;;;23.58;19.27;;;;;;;16.53;71.38;101370.81;5030821;28;20045;-66
2021/12/03 05:45:49;;;;;;;31.00;21.27;;;;;;;16.57;71.30;101373.47;5030397;28;20041;-65
2021/12/03 05:48:17;;;;;;;31.30;27.77;;;;;;;16.60;71.21;101377.97;5031469;28;20116;-65
2021/12/03 05:50:47;;;;;;;28.83;20.73;;;;;;;16.64;71.08;101369.97;5035399;28;20115;-65
2021/12/03 05:53:15;;;;;;;28.10;23.30;;;;;;;16.65;70.96;101358.41;5034443;28;20038;-66
2021/12/03 05:55:43;;;;;;;23.30;19.38;;;;;;;16.68;70.84;101362.81;5028560;28;20057;-66
2021/12/03 05:58:10;;;;;;;28.35;24.23;;;;;;;16.71;70.70;101368.19;5024260;28;20113;-65
2021/12/03 06:00:42;;;;;;;28.73;24.52;;;;;;;16.75;70.64;101375.28;5023995;28;20069;-65
2021/12/03 06:03:10;;;;;;;53.92;36.83;;;;;;;16.79;70.55;101379.75;5028637;28;20040;-65
2021/12/03 06:05:40;;;;;;;56.13;42.50;;;;;;;16.86;70.38;101388.63;5029871;28;20037;-66
2021/12/03 06:08:10;;;;;;;48.00;36.72;;;;;;;16.87;70.38;101387.75;5028553;28;20065;-65
2021/12/03 06:10:38;;;;;;;37.78;30.92;;;;;;;16.91;70.25;101394.84;5028966;28;20052;-66
2021/12/03 06:13:06;;;;;;;48.45;42.53;;;;;;;16.95;70.18;101397.50;5029319;28;20061;-65
2021/12/03 06:15:34;;;;;;;63.78;52.95;;;;;;;16.99;70.07;101399.31;5020538;28;20046;-66
2021/12/03 06:18:02;;;;;;;44.65;37.58;;;;;;;17.01;69.93;101399.28;5029647;28;20041;-66
2021/12/03 06:20:30;;;;;;;43.35;35.83;;;;;;;17.05;69.86;101396.63;5028476;28;20131;-66
2021/12/03 06:22:57;;;;;;;14.25;11.55;;;;;;;17.14;69.66;101398.38;5029971;28;20116;-66
2021/12/03 06:25:27;;;;;;;3.50;1.73;;;;;;;17.23;69.39;101397.47;5026727;28;20046;-66
2021/12/03 06:27:57;;;;;;;2.88;0.93;;;;;;;17.29;69.15;101395.69;5022525;28;20029;-66
2021/12/03 06:30:26;;;;;;;2.05;0.38;;;;;;;17.40;68.75;101398.34;5029397;28;20072;-66
2021/12/03 06:32:55;;;;;;;2.85;1.10;;;;;;;17.50;68.35;101395.66;5020248;28;20444;-65
2021/12/03 06:35:23;;;;;;;2.22;0.40;;;;;;;17.59;67.93;101385.84;5020434;28;20046;-65
2021/12/03 06:37:51;;;;;;;3.05;0.77;;;;;;;17.67;67.52;101373.38;5017326;28;20491;-66
2021/12/03 06:40:21;;;;;;;5.22;0.68;;;;;;;17.76;66.99;101374.25;5026903;28;20682;-65
2021/12/03 06:42:51;;;;;;;2.33;0.50;;;;;;;17.78;67.05;101384.94;5031245;28;20041;-66
2021/12/03 06:45:19;;;;;;;2.53;0.38;;;;;;;17.82;66.91;101387.56;5031909;28;20041;-65
2021/12/03 06:47:47;;;;;;;2.10;0.40;;;;;;;17.88;66.59;101390.22;5044444;28;20091;-66
2021/12/03 06:50:18;;;;;;;3.80;0.60;;;;;;;17.95;66.40;101374.16;5029218;28;20061;-66
2021/12/03 06:52:50;;;;;;;0.95;0.50;;;;;;;17.99;66.51;101375.91;5019261;28;20463;-65
2021/12/03 06:55:17;;;;;;;4.93;0.50;;;;;;;18.00;66.56;101367.88;5021425;28;20553;-66
2021/12/03 06:57:46;;;;;;;3.03;0.40;;;;;;;18.06;66.61;101365.19;5007813;28;20525;-66
2021/12/03 07:00:17;;;;;;;4.22;0.98;;;;;;;18.10;66.49;101371.41;5013058;28;20034;-66
2021/12/03 07:02:45;;;;;;;3.75;1.27;;;;;;;18.13;66.52;101374.94;5018495;28;20045;-66
2021/12/03 07:05:13;;;;;;;3.17;0.65;;;;;;;18.18;66.48;101367.78;5027139;28;20053;-66
2021/12/03 07:07:42;;;;;;;3.50;0.45;;;;;;;18.29;65.91;101365.06;5026912;28;20095;-67
2021/12/03 07:10:10;;;;;;;1.92;0.38;;;;;;;18.40;65.51;101368.53;5028506;28;20116;-66
2021/12/03 07:12:39;;;;;;;2.15;0.40;;;;;;;18.47;64.88;101354.22;5021405;28;20494;-65
2021/12/03 07:15:07;;;;;;;3.75;0.43;;;;;;;18.54;64.72;101352.41;5020779;28;20038;-65
2021/12/03 07:17:37;;;;;;;4.95;0.60;;;;;;;18.61;64.10;101346.13;5015932;28;20034;-65
2021/12/03 07:20:05;;;;;;;3.38;0.45;;;;;;;18.67;63.31;101367.47;5027102;28;20041;-65
2021/12/03 07:22:33;;;;;;;3.10;0.73;;;;;;;18.73;62.85;101371.91;5011419;28;20625;-65
2021/12/03 07:25:01;;;;;;;1.15;0.45;;;;;;;18.76;62.77;101379.91;5019388;28;20110;-65
2021/12/03 07:27:28;;;;;;;2.00;0.30;;;;;;;18.81;62.76;101380.75;5027734;28;20052;-65
2021/12/03 07:29:56;;;;;;;4.15;0.85;;;;;;;18.83;62.99;101401.25;5027074;28;20041;-66
2021/12/03 07:32:27;;;;;;;12.70;6.75;;;;;;;18.82;64.64;101414.63;5028751;28;20433;-65
2021/12/03 07:34:56;;;;;;;16.33;12.57;;;;;;;18.68;66.91;101404.03;5026978;28;20041;-65
2021/12/03 07:37:24;;;;;;;28.90;19.92;;;;;;;18.46;69.68;101403.25;5029288;28;20029;-66
2021/12/03 07:39:51;;;;;;;22.02;15.50;;;;;;;18.08;71.96;101389.22;5028414;28;20051;-66
2021/12/03 07:42:19;;;;;;;6.22;3.53;;;;;;;17.66;75.27;101399.19;5027588;28;20559;-68
2021/12/03 07:44:47;;;;;;;6.75;1.15;;;;;;;17.27;77.71;101415.25;5030787;28;20485;-67
2021/12/03 07:47:15;;;;;;;4.82;0.73;;;;;;;17.11;79.27;101423.31;5026034;28;20095;-67
2021/12/03 07:49:44;;;;;;;7.88;1.83;;;;;;;17.10;80.25;101434.84;5026535;28;20044;-67
2021/12/03 07:52:15;;;;;;;6.88;1.40;;;;;;;17.13;81.14;101440.19;5028677;28;20120;-67
2021/12/03 07:54:43;;;;;;;5.57;2.30;;;;;;;17.12;81.69;101435.75;5027375;28;20041;-66
2021/12/03 07:57:11;;;;;;;11.18;4.38;;;;;;;17.09;82.02;101451.75;5028455;28;20049;-66
2021/12/03 07:59:39;;;;;;;36.67;26.83;;;;;;;17.07;82.02;101452.63;5027505;28;20073;-66
2021/12/03 08:02:07;;;;;;;28.30;21.65;;;;;;;17.05;81.87;101449.09;5028876;28;20079;-66
2021/12/03 08:04:35;;;;;;;26.80;18.40;;;;;;;17.04;81.87;101460.66;5028657;28;20038;-66
2021/12/03 08:07:02;;;;;;;44.20;30.50;;;;;;;16.99;81.79;101463.31;5028128;28;20045;-66
2021/12/03 08:09:32;;;;;;;57.13;40.75;;;;;;;17.07;81.81;101458.84;5028300;28;20128;-66
2021/12/03 08:11:59;;;;;;;49.45;35.72;;;;;;;17.10;81.67;101441.97;5026959;28;20034;-66
2021/12/03 08:14:27;;;;;;;21.92;14.30;;;;;;;17.14;81.60;101438.41;5027943;28;20539;-66
2021/12/03 08:16:55;;;;;;;28.55;19.35;;;;;;;17.21;81.57;101441.94;5027113;28;20547;-65
2021/12/03 08:19:23;;;;;;;49.85;38.47;;;;;;;17.27;81.38;101426.81;5008604;28;20049;-66
2021/12/03 08:21:50;;;;;;;19.27;11.38;;;;;;;17.26;80.92;101419.75;5027334;28;20145;-67
2021/12/03 08:24:18;;;;;;;20.73;13.65;;;;;;;17.29;80.66;101414.38;5027632;28;20041;-66
2021/12/03 08:26:47;;;;;;;17.98;11.27;;;;;;;17.31;80.13;101417.94;5028343;28;20057;-66
2021/12/03 08:29:14;;;;;;;37.47;25.58;;;;;;;17.40;79.85;101419.69;5018940;28;20156;-66
2021/12/03 08:31:42;;;;;;;45.28;35.28;;;;;;;17.44;79.12;101418.81;5028688;28;20103;-66
2021/12/03 08:34:11;;;;;;;32.08;24.58;;;;;;;17.50;78.46;101414.34;5032093;28;20057;-66
2021/12/03 08:36:39;;;;;;;20.75;15.15;;;;;;;17.52;77.20;101415.22;5032571;28;20037;-65
2021/12/03 08:39:08;;;;;;;52.03;39.65;;;;;;;17.55;76.50;101417.00;5032214;28;20041;-66
2021/12/03 08:41:36;;;;;;;58.85;45.50;;;;;;;17.65;76.65;101408.13;5032741;28;20123;-66
2021/12/03 08:44:06;;;;;;;69.20;54.78;;;;;;;17.76;75.70;101403.63;5031520;28;20033;-66
2021/12/03 08:46:36;;;;;;;75.90;60.53;;;;;;;17.83;75.57;101389.34;5032492;28;20088;-66
2021/12/03 08:49:11;;;;;;;69.47;54.20;;;;;;;17.96;75.64;101386.63;5030871;28;20087;-66
2021/12/03 08:51:53;;;;;;;38.80;27.13;;;;;;;18.05;74.43;101378.56;5032232;28;20111;-66
2021/12/03 08:57:06;;;;;;;45.95;40.70;;;;;;;18.28;74.79;101365.94;5049357;28;20053;-65
2021/12/03 08:59:35;;;;;;;13.38;9.95;;;;;;;18.40;73.98;101354.28;5051994;28;20041;-66
2021/12/03 09:02:04;;;;;;;5.45;1.67;;;;;;;18.42;73.05;101352.50;5052444;28;20037;-67
2021/12/03 09:04:31;;;;;;;4.68;0.85;;;;;;;18.47;72.49;101353.34;5051949;28;20526;-66
2021/12/03 09:07:00;;;;;;;5.65;0.70;;;;;;;18.51;72.35;101360.47;5051718;28;20127;-66
2021/12/03 09:09:28;;;;;;;2.17;1.25;;;;;;;18.56;71.88;101364.00;5050618;28;20400;-67
2021/12/03 09:11:57;;;;;;;2.53;1.00;;;;;;;18.60;71.41;101349.72;5051951;28;20040;-67
2021/12/03 09:14:29;;;;;;;2.47;0.50;;;;;;;18.57;70.55;101339.94;5051816;28;20033;-66
2021/12/03 09:17:01;;;;;;;4.47;2.35;;;;;;;18.63;70.20;101355.94;5052311;28;20037;-66
2021/12/03 09:19:34;;;;;;;12.90;8.52;;;;;;;18.73;70.74;101339.78;5055201;28;20523;-66
2021/12/03 09:22:01;;;;;;;24.40;20.63;;;;;;;18.84;70.75;101336.13;5071667;28;20048;-66
2021/12/03 09:24:32;;;;;;;19.67;17.63;;;;;;;18.90;69.81;101335.19;5058447;28;20038;-66
2021/12/03 09:27:00;;;;;;;13.45;5.82;;;;;;;18.86;68.21;101334.31;5030499;28;20124;-66
2021/12/03 09:29:30;;;;;;;19.25;14.20;;;;;;;18.90;68.77;101322.72;5029993;28;20587;-66
2021/12/03 09:32:00;;;;;;;35.45;27.88;;;;;;;18.97;68.95;101305.66;5030793;28;20034;-66
2021/12/03 09:34:30;;;;;;;32.58;25.85;;;;;;;18.97;68.62;101319.03;5031835;28;20044;-66
2021/12/03 09:36:58;;;;;;;35.53;31.67;;;;;;;19.00;68.37;101332.41;5032154;28;20052;-66
2021/12/03 09:39:26;;;;;;;26.40;20.45;;;;;;;19.04;68.30;101319.88;5031238;28;20441;-66
2021/12/03 09:41:58;;;;;;;25.45;20.67;;;;;;;19.18;68.34;101320.63;5029900;28;20041;-66
2021/12/03 09:44:30;;;;;;;18.33;10.77;;;;;;;19.24;66.77;101317.88;5029863;28;20045;-66
2021/12/03 09:46:59;;;;;;;10.95;6.72;;;;;;;19.23;66.51;101336.66;5030173;28;20120;-66
2021/12/03 09:49:32;;;;;;;10.10;5.50;;;;;;;19.20;65.76;101320.59;5024901;28;20050;-66
2021/12/03 09:52:14;;;;;;;5.57;3.83;;;;;;;19.22;65.98;101309.00;5031052;28;20037;-66
2021/12/03 09:54:45;;;;;;;6.97;4.07;;;;;;;19.26;65.96;101293.78;5018794;28;20056;-66
2021/12/03 09:57:18;;;;;;;29.73;21.13;;;;;;;19.36;65.67;101287.41;5009640;28;20125;-66
2021/12/03 10:03:05;;;;;;;25.95;19.95;;;;;;;19.36;64.82;101284.75;5026638;28;20129;-67
2021/12/03 10:20:10;;;;;;;9.75;6.00;;;;;;;19.31;62.13;101243.72;5020083;28;20049;-67
2021/12/03 10:34:00;;;;;;;4.32;1.58;;;;;;;19.39;61.68;101236.47;5001318;28;20045;-66
2021/12/03 10:36:57;;;;;;;6.47;2.28;;;;;;;19.31;61.57;101259.78;5049912;28;20040;-67
2021/12/03 10:45:33;;;;;;;25.30;21.23;;;;;;;19.30;61.21;101282.09;5036752;28;20057;-66
2021/12/03 10:48:10;;;;;;;12.60;9.52;;;;;;;19.30;61.64;101279.44;5038783;28;20041;-66
2021/12/03 10:50:59;;;;;;;9.98;6.00;;;;;;;19.27;61.78;101301.78;5049201;28;20543;-66
2021/12/03 10:53:40;;;;;;;17.92;8.00;;;;;;;19.29;61.87;101313.38;5029642;28;20120;-66
2021/12/03 10:56:38;;;;;;;12.18;3.80;;;;;;;19.26;62.57;101320.53;5040909;28;20064;-66
2021/12/03 10:59:40;;;;;;;18.67;15.30;;;;;;;19.23;63.38;101305.38;5040751;28;20441;-66
2021/12/03 11:08:09;;;;;;;40.85;34.80;;;;;;;19.10;63.97;101304.63;5043291;28;20053;-66
2021/12/03 11:27:54;;;;;;;25.25;21.02;;;;;;;19.29;61.69;101240.19;5035212;28;20095;-66
2021/12/03 11:30:48;;;;;;;22.58;16.92;;;;;;;19.41;60.79;101232.91;5037728;28;20044;-66
2021/12/03 11:34:02;;;;;;;17.05;11.68;;;;;;;19.52;60.64;101222.06;5054438;28;20038;-66
2021/12/03 11:37:08;;;;;;;15.13;13.20;;;;;;;19.53;58.49;101233.66;5059295;28;20056;-66
2021/12/03 12:24:28;;;;;;;14.70;10.13;;;;;;;19.42;56.99;101196.28;5038161;28;20040;-65
2021/12/03 13:01:43;;;;;;;12.80;8.73;;;;;;;19.31;55.02;101155.38;5049963;28;20049;-65
2021/12/03 13:13:59;;;;;;;9.32;5.28;;;;;;;19.19;55.36;101143.03;5049424;28;20105;-66
2021/12/03 13:23:59;;;;;;;17.92;11.95;;;;;;;19.09;55.28;101163.72;5014513;28;20064;-65
2021/12/03 14:38:54;;;;;;;5.22;0.93;;;;;;;18.54;58.25;101123.31;5034214;28;20036;-69
2021/12/03 14:44:24;;;;;;;3.28;0.63;;;;;;;18.54;58.46;101114.41;5020603;28;20202;-70
2021/12/03 14:53:11;;;;;;;3.55;0.75;;;;;;;18.47;58.93;101091.31;5045215;28;20497;-69
2021/12/03 14:55:41;;;;;;;4.85;1.10;;;;;;;18.46;59.03;101063.69;5037756;28;20049;-69
2021/12/03 14:58:13;;;;;;;4.72;0.93;;;;;;;18.45;59.18;101075.28;5025194;28;20045;-70
2021/12/03 15:00:51;;;;;;;5.13;0.80;;;;;;;18.43;59.43;101082.47;5019763;28;20056;-69
2021/12/03 15:03:43;;;;;;;7.38;1.38;;;;;;;18.44;59.55;101108.28;5032671;28;20078;-69
2021/12/03 15:06:27;;;;;;;4.30;0.65;;;;;;;18.45;59.41;101125.19;5022008;28;20068;-69
2021/12/03 15:08:58;;;;;;;3.72;0.65;;;;;;;18.42;59.53;101130.59;5031146;28;20099;-69
2021/12/03 15:22:48;;;;;;;4.40;1.02;;;;;;;18.41;60.03;101121.69;4987611;28;19929;-69
2021/12/03 15:28:16;;;;;;;3.25;0.68;;;;;;;18.44;60.18;101153.75;5014598;28;20686;-69
2021/12/03 15:33:47;;;;;;;4.63;1.23;;;;;;;18.45;60.34;101174.19;5002650;28;20046;-70
2021/12/03 15:36:21;;;;;;;3.63;0.52;;;;;;;18.44;60.51;101184.94;5026561;28;20038;-70
2021/12/03 15:58:45;;;;;;;12.43;7.70;;;;;;;18.50;61.25;101193.78;5030477;28;20116;-70
2021/12/03 16:04:02;;;;;;;7.93;3.03;;;;;;;18.45;62.34;101221.44;5019952;28;20041;-70
2021/12/03 16:09:22;;;;;;;3.80;1.73;;;;;;;18.47;62.42;101201.81;5032302;28;20044;-70
2021/12/03 16:11:56;;;;;;;9.52;2.95;;;;;;;18.46;62.47;101204.50;5026471;28;20057;-70
2021/12/03 16:17:30;;;;;;;1.88;0.60;;;;;;;18.42;62.16;101202.78;5039096;28;19921;-70
2021/12/03 16:25:50;;;;;;;5.50;1.30;;;;;;;18.46;62.59;101175.97;5022047;28;20037;-70